createdAt,value
2022-08-22T00:00:55.929Z,65.98
2022-08-22T00:02:10.130Z,65.65
2022-08-22T00:02:42.056Z,71.77
2022-08-22T00:02:48.856Z,70.46
2022-08-22T00:02:52.693Z,71.87
2022-08-22T00:02:59.713Z,69.94
2022-08-22T00:03:02.037Z,67.64
2022-08-22T00:03:31.590Z,65.99
2022-08-22T00:05:01.028Z,66.56
2022-08-22T00:06:39.166Z,66.23
2022-08-22T00:07:53.806Z,65.98
2022-08-22T00:09:06.128Z,65.96
2022-08-22T00:10:25.278Z,66.09
2022-08-22T00:11:38.395Z,66.38
2022-08-22T00:12:50.746Z,66.57
2022-08-22T00:14:13.665Z,66.42
2022-08-22T00:15:43.159Z,66.95
2022-08-22T00:17:00.546Z,67.15
2022-08-22T00:18:20.553Z,67.42
2022-08-22T00:19:56.414Z,67.71
2022-08-22T00:21:16.290Z,67.37
2022-08-22T00:22:32.172Z,67.52
2022-08-22T00:23:43.505Z,67.23
2022-08-22T00:24:58.344Z,67.12
2022-08-22T00:26:31.750Z,66.67
2022-08-22T00:27:53.025Z,66.12
2022-08-22T00:29:15.721Z,65.59
2022-08-22T00:30:18.688Z,66.53
2022-08-22T00:31:24.501Z,65.90
2022-08-22T00:32:33.027Z,65.26
2022-08-22T00:33:48.230Z,65.39
2022-08-22T00:35:02.757Z,65.17
2022-08-22T00:36:16.481Z,65.50
2022-08-22T00:37:46.296Z,65.75
2022-08-22T00:39:07.758Z,65.57
2022-08-22T00:40:30.539Z,66.14
2022-08-22T00:41:49.605Z,66.09
2022-08-22T00:43:32.742Z,65.80
2022-08-22T00:45:12.303Z,65.71
2022-08-22T00:46:32.485Z,65.58
2022-08-22T00:48:03.887Z,65.20
2022-08-22T00:49:21.977Z,64.92
2022-08-22T00:50:52.161Z,65.04
2022-08-22T00:51:56.522Z,65.74
2022-08-22T00:53:00.873Z,65.44
2022-08-22T00:54:21.628Z,65.76
2022-08-22T00:55:41.731Z,66.04
2022-08-22T00:57:31.574Z,66.85
2022-08-22T00:58:57.619Z,66.78
2022-08-22T01:00:14.184Z,66.77
2022-08-22T01:01:26.544Z,66.92
2022-08-22T01:02:56.862Z,66.77
2022-08-22T01:04:13.850Z,67.69
2022-08-22T01:05:33.289Z,67.88
2022-08-22T01:06:40.741Z,68.00
2022-08-22T01:08:01.645Z,68.42
2022-08-22T01:09:14.016Z,68.12
2022-08-22T01:10:52.460Z,68.15
2022-08-22T01:12:23.934Z,68.20
2022-08-22T01:13:28.034Z,68.56
2022-08-22T01:14:38.790Z,67.85
2022-08-22T01:15:42.515Z,68.25
2022-08-22T01:17:01.965Z,68.15
2022-08-22T01:18:25.080Z,67.91
2022-08-22T01:20:00.867Z,68.55
2022-08-22T01:21:30.350Z,69.09
2022-08-22T01:22:31.997Z,68.49
2022-08-22T01:24:08.937Z,68.39
2022-08-22T01:25:57.288Z,68.12
2022-08-22T01:27:19.336Z,68.70
2022-08-22T01:28:45.171Z,68.92
2022-08-22T01:30:31.770Z,69.11
2022-08-22T01:31:51.718Z,69.47
2022-08-22T01:33:19.355Z,69.53
2022-08-22T01:34:36.126Z,70.17
2022-08-22T01:36:02.678Z,70.19
2022-08-22T01:37:23.866Z,70.83
2022-08-22T01:38:48.130Z,70.60
2022-08-22T01:40:31.022Z,70.53
2022-08-22T01:41:46.319Z,70.20
2022-08-22T01:43:12.237Z,70.32
2022-08-22T01:44:53.042Z,70.34
2022-08-22T01:46:11.740Z,70.86
2022-08-22T01:47:17.949Z,70.19
2022-08-22T01:48:31.281Z,70.41
2022-08-22T01:50:02.237Z,70.96
2022-08-22T01:51:17.767Z,71.66
2022-08-22T01:52:43.853Z,71.91
2022-08-22T01:54:27.175Z,72.01
2022-08-22T01:55:44.829Z,71.62
2022-08-22T01:56:47.500Z,72.21
2022-08-22T01:57:56.168Z,72.05
2022-08-22T01:59:04.821Z,71.58
2022-08-22T02:00:17.647Z,70.45
2022-08-22T02:01:53.309Z,71.17
2022-08-22T02:03:28.126Z,72.03
2022-08-22T02:04:34.499Z,72.04
2022-08-22T02:06:09.987Z,72.28
2022-08-22T02:07:31.832Z,72.08
2022-08-22T02:09:02.926Z,71.88
2022-08-22T02:10:25.577Z,72.45
2022-08-22T02:11:52.405Z,72.37
2022-08-22T02:13:03.350Z,72.25
2022-08-22T02:14:21.467Z,72.43
2022-08-22T02:15:38.485Z,72.43
2022-08-22T02:16:47.530Z,72.30
2022-08-22T02:18:09.110Z,72.44
2022-08-22T02:19:10.752Z,72.15
2022-08-22T02:20:25.188Z,72.28
2022-08-22T02:21:43.094Z,71.59
2022-08-22T02:23:04.306Z,71.51
2022-08-22T02:24:16.712Z,71.46
2022-08-22T02:25:25.801Z,71.21
2022-08-22T02:26:51.720Z,71.14
2022-08-22T02:28:05.682Z,71.01
2022-08-22T02:29:21.302Z,71.03
2022-08-22T02:30:42.321Z,71.29
2022-08-22T02:31:56.887Z,71.31
2022-08-22T02:33:12.802Z,71.17
2022-08-22T02:34:47.574Z,70.98
2022-08-22T02:36:00.044Z,71.28
2022-08-22T02:37:10.613Z,71.50
2022-08-22T02:38:40.041Z,71.30
2022-08-22T02:40:05.183Z,71.30
2022-08-22T02:41:14.383Z,71.62
2022-08-22T02:42:34.830Z,71.31
2022-08-22T02:43:45.051Z,71.47
2022-08-22T02:45:00.519Z,71.62
2022-08-22T02:46:14.368Z,71.80
2022-08-22T02:47:29.662Z,72.16
2022-08-22T02:49:12.210Z,72.14
2022-08-22T02:50:24.607Z,72.19
2022-08-22T02:51:50.098Z,71.70
2022-08-22T02:53:05.594Z,71.82
2022-08-22T02:54:45.606Z,72.24
2022-08-22T02:56:03.621Z,72.23
2022-08-22T02:57:14.871Z,72.32
2022-08-22T02:58:42.189Z,72.24
2022-08-22T03:00:32.004Z,72.08
2022-08-22T03:01:40.861Z,71.56
2022-08-22T03:02:45.887Z,71.51
2022-08-22T03:03:48.762Z,72.06
2022-08-22T03:04:57.662Z,71.69
2022-08-22T03:06:05.576Z,71.24
2022-08-22T03:07:22.111Z,71.54
2022-08-22T03:08:31.940Z,72.12
2022-08-22T03:09:56.557Z,72.67
2022-08-22T03:11:24.574Z,72.88
2022-08-22T03:12:32.730Z,73.25
2022-08-22T03:13:59.367Z,73.40
2022-08-22T03:15:29.129Z,73.67
2022-08-22T03:17:11.000Z,74.40
2022-08-22T03:18:12.672Z,75.16
2022-08-22T03:19:27.834Z,75.06
2022-08-22T03:21:11.576Z,75.19
2022-08-22T03:22:19.061Z,74.94
2022-08-22T03:23:34.251Z,74.86
2022-08-22T03:24:38.802Z,74.93
2022-08-22T03:25:49.951Z,75.14
2022-08-22T03:27:10.112Z,75.00
2022-08-22T03:28:59.018Z,75.00
2022-08-22T03:30:07.489Z,75.48
2022-08-22T03:31:21.087Z,75.47
2022-08-22T03:32:44.351Z,75.46
2022-08-22T03:34:14.904Z,75.66
2022-08-22T03:35:35.022Z,75.26
2022-08-22T03:36:37.599Z,75.05
2022-08-22T03:37:43.129Z,74.86
2022-08-22T03:39:17.412Z,74.78
2022-08-22T03:40:32.554Z,75.27
2022-08-22T03:42:11.227Z,74.84
2022-08-22T03:43:40.168Z,74.82
2022-08-22T03:45:26.936Z,75.08
2022-08-22T03:47:13.357Z,75.24
2022-08-22T03:48:44.932Z,75.36
2022-08-22T03:49:59.498Z,75.60
2022-08-22T03:51:10.677Z,75.73
2022-08-22T03:52:34.073Z,75.84
2022-08-22T03:54:03.600Z,76.11
2022-08-22T03:55:34.816Z,76.29
2022-08-22T03:56:45.061Z,76.21
2022-08-22T03:58:12.005Z,76.48
2022-08-22T03:59:51.505Z,76.48
2022-08-22T04:01:11.295Z,76.19
2022-08-22T04:02:41.910Z,76.10
2022-08-22T04:04:23.218Z,75.88
2022-08-22T04:05:32.393Z,75.96
2022-08-22T04:07:32.443Z,76.50
2022-08-22T04:09:02.936Z,76.95
2022-08-22T04:10:17.541Z,77.13
2022-08-22T04:11:37.548Z,77.22
2022-08-22T04:12:44.983Z,77.13
2022-08-22T04:13:49.324Z,77.23
2022-08-22T04:15:16.429Z,77.36
2022-08-22T04:16:49.355Z,77.36
2022-08-22T04:18:03.477Z,77.02
2022-08-22T04:19:10.913Z,76.93
2022-08-22T04:20:21.246Z,76.79
2022-08-22T04:22:08.265Z,76.92
2022-08-22T04:23:22.135Z,76.57
2022-08-22T04:24:51.966Z,76.60
2022-08-22T04:26:01.866Z,76.98
2022-08-22T04:27:21.901Z,76.98
2022-08-22T04:28:36.247Z,78.27
2022-08-22T04:29:47.056Z,78.73
2022-08-22T04:31:05.104Z,79.30
2022-08-22T04:32:15.156Z,79.46
2022-08-22T04:33:26.545Z,79.53
2022-08-22T04:34:37.421Z,78.56
2022-08-22T04:35:45.726Z,78.53
2022-08-22T04:36:54.573Z,78.23
2022-08-22T04:38:14.580Z,78.54
2022-08-22T04:39:21.385Z,77.68
2022-08-22T04:40:34.481Z,77.02
2022-08-22T04:41:48.937Z,76.71
2022-08-22T04:43:06.699Z,75.71
2022-08-22T04:44:17.429Z,73.84
2022-08-22T04:45:25.062Z,72.80
2022-08-22T04:46:41.856Z,71.62
2022-08-22T04:47:56.950Z,72.20
2022-08-22T04:49:17.611Z,73.25
2022-08-22T04:50:26.160Z,73.46
2022-08-22T04:51:39.642Z,73.16
2022-08-22T04:52:55.153Z,71.46
2022-08-22T04:53:56.847Z,70.46
2022-08-22T04:55:18.083Z,69.55
2022-08-22T04:56:37.949Z,69.03
2022-08-22T04:57:48.512Z,66.15
2022-08-22T04:59:03.061Z,66.30
2022-08-22T05:00:08.481Z,66.38
2022-08-22T05:01:16.626Z,66.95
2022-08-22T05:02:25.217Z,67.43
2022-08-22T05:03:30.303Z,67.30
2022-08-22T05:04:43.568Z,66.49
2022-08-22T05:05:48.688Z,66.84
2022-08-22T05:06:54.316Z,65.04
2022-08-22T05:07:59.982Z,63.83
2022-08-22T05:09:12.915Z,60.87
2022-08-22T05:10:23.078Z,61.33
2022-08-22T05:11:25.014Z,60.46
2022-08-22T05:12:40.645Z,59.53
2022-08-22T05:13:50.957Z,59.32
2022-08-22T05:15:05.588Z,59.78
2022-08-22T05:16:19.146Z,58.03
2022-08-22T05:17:24.837Z,57.03
2022-08-22T05:18:42.028Z,56.59
2022-08-22T05:19:50.777Z,57.18
2022-08-22T05:20:54.482Z,56.72
2022-08-22T05:21:56.903Z,56.76
2022-08-22T05:23:17.641Z,54.79
2022-08-22T05:24:27.980Z,53.22
2022-08-22T05:25:36.369Z,54.51
2022-08-22T05:26:42.509Z,53.45
2022-08-22T05:27:56.264Z,52.73
2022-08-22T05:29:03.480Z,51.99
2022-08-22T05:30:11.795Z,52.80
2022-08-22T05:31:23.223Z,51.50
2022-08-22T05:32:32.862Z,51.37
2022-08-22T05:33:41.750Z,50.61
2022-08-22T05:34:46.800Z,51.09
2022-08-22T05:35:58.453Z,50.61
2022-08-22T05:37:14.410Z,51.00
2022-08-22T05:38:20.950Z,50.71
2022-08-22T05:39:27.912Z,49.14
2022-08-22T05:40:33.294Z,49.10
2022-08-22T05:41:37.564Z,48.05
2022-08-22T05:42:39.273Z,48.09
2022-08-22T05:43:44.151Z,48.33
2022-08-22T05:44:46.206Z,48.31
2022-08-22T05:45:49.194Z,47.63
2022-08-22T05:47:00.115Z,47.25
2022-08-22T05:48:11.967Z,47.72
2022-08-22T05:49:36.087Z,48.16
2022-08-22T05:50:37.832Z,47.44
2022-08-22T05:51:48.492Z,47.08
2022-08-22T05:53:11.021Z,47.48
2022-08-22T05:54:20.128Z,46.77
2022-08-22T05:55:28.224Z,48.48
2022-08-22T05:56:38.417Z,48.75
2022-08-22T05:57:46.520Z,48.35
2022-08-22T05:58:53.894Z,48.49
2022-08-22T06:00:10.418Z,48.38
2022-08-22T06:01:35.611Z,50.08
2022-08-22T06:03:15.032Z,49.12
2022-08-22T06:04:52.500Z,47.54
2022-08-22T06:06:03.512Z,48.01
2022-08-22T06:07:17.042Z,48.37
2022-08-22T06:08:25.169Z,47.23
2022-08-22T06:09:48.333Z,48.52
2022-08-22T06:10:55.744Z,48.57
2022-08-22T06:12:21.712Z,49.10
2022-08-22T06:13:41.920Z,48.71
2022-08-22T06:14:52.739Z,49.55
2022-08-22T06:15:57.597Z,48.86
2022-08-22T06:17:10.331Z,48.69
2022-08-22T06:18:16.961Z,50.58
2022-08-22T06:19:20.276Z,50.42
2022-08-22T06:20:28.712Z,50.66
2022-08-22T06:21:39.301Z,49.64
2022-08-22T06:22:51.241Z,49.25
2022-08-22T06:24:01.378Z,49.58
2022-08-22T06:25:12.983Z,48.89
2022-08-22T06:26:20.450Z,48.68
2022-08-22T06:27:27.070Z,49.53
2022-08-22T06:28:55.084Z,48.60
2022-08-22T06:30:04.107Z,49.39
2022-08-22T06:31:08.421Z,48.51
2022-08-22T06:32:16.977Z,48.92
2022-08-22T06:33:42.373Z,49.30
2022-08-22T06:34:47.829Z,49.76
2022-08-22T06:36:14.212Z,50.51
2022-08-22T06:37:25.357Z,49.83
2022-08-22T06:38:33.600Z,49.02
2022-08-22T06:39:42.957Z,49.83
2022-08-22T06:40:44.794Z,50.99
2022-08-22T06:41:49.370Z,49.31
2022-08-22T06:42:52.530Z,50.68
2022-08-22T06:43:55.692Z,50.34
2022-08-22T06:45:07.600Z,50.57
2022-08-22T06:46:12.396Z,50.10
2022-08-22T06:47:23.486Z,51.21
2022-08-22T06:48:25.295Z,48.60
2022-08-22T06:49:30.447Z,47.24
2022-08-22T06:50:35.205Z,47.89
2022-08-22T06:51:39.056Z,49.59
2022-08-22T06:53:19.731Z,47.92
2022-08-22T06:54:26.541Z,47.91
2022-08-22T06:55:30.212Z,49.07
2022-08-22T06:56:44.211Z,48.06
2022-08-22T06:57:53.877Z,46.73
2022-08-22T06:58:59.756Z,47.29
2022-08-22T07:00:14.318Z,44.97
2022-08-22T07:01:23.857Z,44.06
2022-08-22T07:02:41.072Z,44.55
2022-08-22T07:04:07.893Z,44.26
2022-08-22T07:05:16.821Z,41.46
2022-08-22T07:06:28.518Z,42.19
2022-08-22T07:07:30.461Z,40.22
2022-08-22T07:08:38.969Z,38.41
2022-08-22T07:09:41.711Z,38.74
2022-08-22T07:10:47.804Z,39.25
2022-08-22T07:11:50.937Z,38.79
2022-08-22T07:12:56.560Z,39.53
2022-08-22T07:14:05.849Z,37.45
2022-08-22T07:15:37.466Z,37.78
2022-08-22T07:16:59.101Z,37.77
2022-08-22T07:18:05.306Z,39.40
2022-08-22T07:19:09.361Z,38.09
2022-08-22T07:20:42.303Z,39.56
2022-08-22T07:21:47.267Z,38.27
2022-08-22T07:23:13.422Z,38.32
2022-08-22T07:24:20.705Z,40.41
2022-08-22T07:25:24.519Z,37.50
2022-08-22T07:26:26.204Z,38.54
2022-08-22T07:27:48.911Z,38.52
2022-08-22T07:28:59.783Z,38.21
2022-08-22T07:30:14.850Z,39.24
2022-08-22T07:31:40.546Z,38.90
2022-08-22T07:32:54.360Z,37.18
2022-08-22T07:34:10.874Z,37.26
2022-08-22T07:35:21.776Z,37.49
2022-08-22T07:36:31.494Z,37.60
2022-08-22T07:37:52.188Z,38.00
2022-08-22T07:39:12.466Z,38.37
2022-08-22T07:40:27.182Z,37.70
2022-08-22T07:42:00.109Z,38.36
2022-08-22T07:43:15.025Z,38.32
2022-08-22T07:44:23.701Z,39.08
2022-08-22T07:45:45.655Z,39.02
2022-08-22T07:46:58.053Z,39.67
2022-08-22T07:48:19.751Z,39.54
2022-08-22T07:49:54.064Z,39.12
2022-08-22T07:51:17.758Z,39.24
2022-08-22T07:52:29.131Z,38.05
2022-08-22T07:53:44.670Z,39.14
2022-08-22T07:55:18.993Z,38.76
2022-08-22T07:56:27.850Z,38.61
2022-08-22T07:57:40.666Z,40.73
2022-08-22T07:58:45.304Z,37.62
2022-08-22T07:59:50.988Z,38.40
2022-08-22T08:00:54.553Z,38.41
2022-08-22T08:02:00.135Z,38.19
2022-08-22T08:03:06.462Z,39.88
2022-08-22T08:04:13.269Z,37.07
2022-08-22T08:05:16.320Z,37.20
2022-08-22T08:06:18.097Z,36.01
2022-08-22T08:07:23.939Z,38.44
2022-08-22T08:08:45.157Z,35.90
2022-08-22T08:09:53.121Z,34.88
2022-08-22T08:10:57.521Z,35.51
2022-08-22T08:12:02.066Z,35.60
2022-08-22T08:13:10.556Z,36.60
2022-08-22T08:14:15.597Z,38.66
2022-08-22T08:15:23.636Z,37.66
2022-08-22T08:16:29.300Z,36.43
2022-08-22T08:17:34.594Z,38.30
2022-08-22T08:18:39.286Z,35.62
2022-08-22T08:19:43.124Z,36.17
2022-08-22T08:20:51.999Z,34.27
2022-08-22T08:21:56.752Z,31.54
2022-08-22T08:22:59.628Z,34.10
2022-08-22T08:24:02.350Z,36.74
2022-08-22T08:25:07.009Z,34.87
2022-08-22T08:26:15.959Z,37.77
2022-08-22T08:27:41.197Z,35.59
2022-08-22T08:28:49.312Z,33.93
2022-08-22T08:29:59.386Z,34.29
2022-08-22T08:31:09.698Z,33.69
2022-08-22T08:32:13.396Z,35.04
2022-08-22T08:33:25.762Z,35.91
2022-08-22T08:34:32.525Z,35.13
2022-08-22T08:35:42.415Z,34.36
2022-08-22T08:37:28.831Z,35.38
2022-08-22T08:38:43.925Z,33.73
2022-08-22T08:39:52.245Z,36.06
2022-08-22T08:41:12.272Z,36.97
2022-08-22T08:42:58.396Z,36.57
2022-08-22T08:44:15.297Z,35.84
2022-08-22T08:45:45.972Z,35.00
2022-08-22T08:47:22.853Z,34.72
2022-08-22T08:48:50.444Z,35.28
2022-08-22T08:50:21.173Z,35.35
2022-08-22T08:52:00.154Z,32.84
2022-08-22T08:53:39.069Z,34.12
2022-08-22T08:55:19.714Z,33.01
2022-08-22T08:56:47.329Z,30.63
2022-08-22T08:58:17.720Z,31.31
2022-08-22T08:59:32.535Z,31.20
2022-08-22T09:01:03.852Z,32.46
2022-08-22T09:02:25.160Z,33.02
2022-08-22T09:03:37.692Z,32.79
2022-08-22T09:04:48.439Z,33.80
2022-08-22T09:05:56.124Z,34.68
2022-08-22T09:07:18.802Z,33.31
2022-08-22T09:08:55.496Z,34.08
2022-08-22T09:10:27.350Z,35.45
2022-08-22T09:12:08.625Z,34.08
2022-08-22T09:13:40.631Z,33.47
2022-08-22T09:15:14.101Z,32.13
2022-08-22T09:16:25.593Z,33.56
2022-08-22T09:17:42.597Z,33.09
2022-08-22T09:19:06.720Z,33.41
2022-08-22T09:20:26.425Z,33.47
2022-08-22T09:21:47.456Z,32.04
2022-08-22T09:23:01.048Z,32.81
2022-08-22T09:24:12.725Z,36.64
2022-08-22T09:25:38.699Z,32.69
2022-08-22T09:26:57.355Z,34.64
2022-08-22T09:28:28.490Z,32.85
2022-08-22T09:29:54.714Z,34.37
2022-08-22T09:31:46.484Z,32.19
2022-08-22T09:33:05.733Z,32.48
2022-08-22T09:34:30.019Z,32.40
2022-08-22T09:35:37.658Z,31.01
2022-08-22T09:36:48.436Z,33.00
2022-08-22T09:38:05.934Z,32.69
2022-08-22T09:39:17.968Z,31.87
2022-08-22T09:40:24.794Z,33.35
2022-08-22T09:41:41.434Z,34.39
2022-08-22T09:42:46.399Z,33.00
2022-08-22T09:44:12.942Z,32.99
2022-08-22T09:45:24.161Z,32.82
2022-08-22T09:46:36.883Z,32.51
2022-08-22T09:48:21.459Z,32.72
2022-08-22T09:49:44.877Z,33.19
2022-08-22T09:51:08.335Z,31.87
2022-08-22T09:52:33.875Z,31.44
2022-08-22T09:54:11.642Z,33.28
2022-08-22T09:55:45.482Z,31.55
2022-08-22T09:56:59.662Z,31.95
2022-08-22T09:58:32.043Z,31.22
2022-08-22T09:59:43.317Z,31.09
2022-08-22T10:00:55.514Z,31.20
2022-08-22T10:02:44.515Z,31.10
2022-08-22T10:04:23.346Z,31.61
2022-08-22T10:05:46.601Z,32.77
2022-08-22T10:07:24.067Z,34.16
2022-08-22T10:08:37.290Z,33.84
2022-08-22T10:09:57.475Z,34.80
2022-08-22T10:11:20.558Z,34.00
2022-08-22T10:12:35.759Z,35.31
2022-08-22T10:13:57.523Z,34.83
2022-08-22T10:15:33.925Z,34.44
2022-08-22T10:16:47.535Z,37.10
2022-08-22T10:18:10.459Z,36.25
2022-08-22T10:19:20.317Z,36.44
2022-08-22T10:20:29.267Z,36.57
2022-08-22T10:22:05.684Z,35.79
2022-08-22T10:23:33.414Z,35.80
2022-08-22T10:25:07.734Z,35.42
2022-08-22T10:26:22.858Z,36.12
2022-08-22T10:27:30.137Z,35.84
2022-08-22T10:28:49.471Z,36.38
2022-08-22T10:30:01.437Z,37.48
2022-08-22T10:31:21.325Z,38.08
2022-08-22T10:32:34.438Z,38.48
2022-08-22T10:34:04.486Z,39.45
2022-08-22T10:35:34.398Z,39.05
2022-08-22T10:37:07.443Z,39.04
2022-08-22T10:38:31.866Z,39.17
2022-08-22T10:39:48.117Z,39.28
2022-08-22T10:41:00.730Z,40.99
2022-08-22T10:42:35.247Z,39.80
2022-08-22T10:44:14.902Z,39.49
2022-08-22T10:45:36.177Z,41.24
2022-08-22T10:46:44.091Z,40.93
2022-08-22T10:47:54.881Z,41.85
2022-08-22T10:49:07.805Z,41.66
2022-08-22T10:50:20.116Z,41.69
2022-08-22T10:51:54.293Z,41.33
2022-08-22T10:53:29.574Z,40.94
2022-08-22T10:54:37.439Z,40.53
2022-08-22T10:55:42.396Z,41.04
2022-08-22T10:56:55.496Z,40.84
2022-08-22T10:58:13.395Z,40.15
2022-08-22T10:59:27.361Z,41.42
2022-08-22T11:00:51.450Z,41.32
2022-08-22T11:02:21.099Z,42.09
2022-08-22T11:03:42.399Z,41.74
2022-08-22T11:04:53.220Z,42.75
2022-08-22T11:06:00.472Z,43.94
2022-08-22T11:07:14.904Z,43.27
2022-08-22T11:08:20.907Z,42.98
2022-08-22T11:09:43.021Z,43.65
2022-08-22T11:11:01.719Z,45.11
2022-08-22T11:12:03.769Z,45.27
2022-08-22T11:13:21.412Z,46.09
2022-08-22T11:14:41.974Z,46.01
2022-08-22T11:16:05.266Z,46.17
2022-08-22T11:17:14.539Z,46.64
2022-08-22T11:18:35.705Z,45.32
2022-08-22T11:20:09.044Z,46.83
2022-08-22T11:21:23.722Z,47.29
2022-08-22T11:22:34.502Z,46.85
2022-08-22T11:23:45.611Z,45.77
2022-08-22T11:25:35.705Z,45.56
2022-08-22T11:27:17.747Z,45.09
2022-08-22T11:28:30.934Z,46.24
2022-08-22T11:30:03.851Z,47.93
2022-08-22T11:31:13.806Z,46.50
2022-08-22T11:32:29.097Z,46.97
2022-08-22T11:33:47.350Z,45.44
2022-08-22T11:35:16.845Z,44.83
2022-08-22T11:36:46.360Z,45.62
2022-08-22T11:37:56.389Z,47.21
2022-08-22T11:39:23.157Z,47.76
2022-08-22T11:40:49.149Z,47.23
2022-08-22T11:42:01.890Z,45.81
2022-08-22T11:43:18.224Z,45.31
2022-08-22T11:44:50.348Z,45.37
2022-08-22T11:45:57.532Z,44.88
2022-08-22T11:47:01.957Z,45.09
2022-08-22T11:48:34.013Z,44.14
2022-08-22T11:49:55.807Z,45.50
2022-08-22T11:50:57.450Z,44.43
2022-08-22T11:52:25.717Z,44.23
2022-08-22T11:53:27.369Z,44.41
2022-08-22T11:54:51.770Z,45.20
2022-08-22T11:55:56.424Z,44.96
2022-08-22T11:57:11.146Z,45.07
2022-08-22T11:58:34.883Z,46.16
2022-08-22T11:59:45.538Z,45.64
2022-08-22T12:01:04.514Z,46.10
2022-08-22T12:02:31.416Z,46.51
2022-08-22T12:03:55.691Z,47.04
2022-08-22T12:05:11.034Z,46.83
2022-08-22T12:06:24.017Z,47.19
2022-08-22T12:07:30.315Z,47.67
2022-08-22T12:08:40.840Z,46.59
2022-08-22T12:09:50.715Z,47.59
2022-08-22T12:11:35.897Z,47.86
2022-08-22T12:12:51.814Z,48.17
2022-08-22T12:14:06.362Z,47.96
2022-08-22T12:15:45.716Z,48.55
2022-08-22T12:16:56.514Z,48.35
2022-08-22T12:18:10.127Z,48.44
2022-08-22T12:19:32.892Z,48.51
2022-08-22T12:21:07.196Z,48.35
2022-08-22T12:22:16.720Z,48.85
2022-08-22T12:23:43.246Z,48.74
2022-08-22T12:25:02.742Z,48.96
2022-08-22T12:26:13.786Z,49.31
2022-08-22T12:27:36.545Z,49.60
2022-08-22T12:28:40.003Z,50.06
2022-08-22T12:29:51.284Z,49.72
2022-08-22T12:31:12.298Z,50.14
2022-08-22T12:32:38.564Z,50.03
2022-08-22T12:34:04.175Z,50.51
2022-08-22T12:35:14.626Z,50.01
2022-08-22T12:36:41.090Z,50.64
2022-08-22T12:37:53.363Z,50.12
2022-08-22T12:39:10.968Z,50.58
2022-08-22T12:40:37.255Z,50.75
2022-08-22T12:42:06.595Z,51.11
2022-08-22T12:43:26.318Z,50.54
2022-08-22T12:44:39.637Z,50.87
2022-08-22T12:45:59.909Z,50.90
2022-08-22T12:47:19.711Z,50.83
2022-08-22T12:48:52.389Z,51.25
2022-08-22T12:50:00.077Z,51.22
2022-08-22T12:51:16.791Z,51.36
2022-08-22T12:52:52.110Z,51.89
2022-08-22T12:54:29.221Z,51.62
2022-08-22T12:55:56.223Z,51.13
2022-08-22T12:56:58.513Z,51.18
2022-08-22T12:58:42.447Z,51.32
2022-08-22T12:59:48.329Z,50.77
2022-08-22T13:00:52.577Z,50.80
2022-08-22T13:01:59.587Z,51.13
2022-08-22T13:03:11.365Z,50.70
2022-08-22T13:04:19.318Z,50.68
2022-08-22T13:05:40.787Z,51.50
2022-08-22T13:07:02.833Z,50.28
2022-08-22T13:08:09.918Z,50.46
2022-08-22T13:09:18.909Z,50.51
2022-08-22T13:10:52.246Z,50.51
2022-08-22T13:12:05.080Z,50.44
2022-08-22T13:13:12.256Z,50.08
2022-08-22T13:14:24.037Z,50.18
2022-08-22T13:15:29.541Z,50.71
2022-08-22T13:16:41.807Z,50.11
2022-08-22T13:17:52.027Z,50.38
2022-08-22T13:19:07.724Z,50.31
2022-08-22T13:20:24.360Z,50.28
2022-08-22T13:21:36.259Z,50.12
2022-08-22T13:22:45.566Z,49.79
2022-08-22T13:23:53.525Z,50.20
2022-08-22T13:25:08.487Z,49.70
2022-08-22T13:26:16.413Z,50.59
2022-08-22T13:27:51.394Z,50.24
2022-08-22T13:29:39.172Z,50.20
2022-08-22T13:30:43.714Z,50.45
2022-08-22T13:31:53.070Z,51.22
2022-08-22T13:33:04.576Z,50.44
2022-08-22T13:34:22.845Z,50.14
2022-08-22T13:35:33.930Z,50.14
2022-08-22T13:36:51.671Z,49.00
2022-08-22T13:38:03.417Z,48.67
2022-08-22T13:39:19.702Z,49.71
2022-08-22T13:40:30.969Z,49.51
2022-08-22T13:41:44.235Z,50.19
2022-08-22T13:42:54.197Z,49.92
2022-08-22T13:44:05.088Z,49.68
2022-08-22T13:45:15.792Z,49.26
2022-08-22T13:46:26.009Z,49.01
2022-08-22T13:47:34.429Z,49.86
2022-08-22T13:48:52.334Z,49.92
2022-08-22T13:50:10.298Z,50.07
2022-08-22T13:51:20.573Z,50.02
2022-08-22T13:52:43.077Z,50.90
2022-08-22T13:54:02.225Z,50.20
2022-08-22T13:55:29.680Z,50.73
2022-08-22T13:56:56.412Z,50.97
2022-08-22T13:58:25.078Z,50.78
2022-08-22T13:59:52.481Z,51.04
2022-08-22T14:01:17.691Z,50.15
2022-08-22T14:02:43.489Z,50.49
2022-08-22T14:03:57.779Z,51.17
2022-08-22T14:05:05.381Z,50.81
2022-08-22T14:06:35.368Z,50.83
2022-08-22T14:08:15.522Z,51.40
2022-08-22T14:09:54.426Z,51.30
2022-08-22T14:11:11.975Z,51.64
2022-08-22T14:12:18.877Z,52.47
2022-08-22T14:13:20.545Z,52.66
2022-08-22T14:14:32.128Z,52.28
2022-08-22T14:15:44.947Z,52.57
2022-08-22T14:16:51.907Z,53.02
2022-08-22T14:18:03.362Z,53.43
2022-08-22T14:19:10.583Z,53.70
2022-08-22T14:20:32.104Z,53.71
2022-08-22T14:21:41.396Z,54.31
2022-08-22T14:22:58.952Z,54.16
2022-08-22T14:24:28.518Z,54.87
2022-08-22T14:25:36.838Z,54.66
2022-08-22T14:26:49.302Z,55.18
2022-08-22T14:27:52.609Z,55.53
2022-08-22T14:28:57.572Z,55.69
2022-08-22T14:30:04.778Z,55.91
2022-08-22T14:31:14.483Z,56.68
2022-08-22T14:32:19.437Z,57.21
2022-08-22T14:33:48.590Z,57.81
2022-08-22T14:34:58.904Z,58.79
2022-08-22T14:36:11.745Z,58.82
2022-08-22T14:37:29.030Z,59.74
2022-08-22T14:38:39.679Z,60.20
2022-08-22T14:39:59.357Z,60.90
2022-08-22T14:41:07.075Z,60.84
2022-08-22T14:42:17.790Z,60.85
2022-08-22T14:43:45.323Z,60.96
2022-08-22T14:45:06.733Z,61.01
2022-08-22T14:46:18.307Z,61.42
2022-08-22T14:47:55.659Z,61.24
2022-08-22T14:49:16.436Z,60.95
2022-08-22T14:50:38.650Z,60.99
2022-08-22T14:51:48.134Z,60.83
2022-08-22T14:53:05.765Z,61.37
2022-08-22T14:54:21.529Z,61.42
2022-08-22T14:55:26.521Z,61.90
2022-08-22T14:56:30.141Z,61.95
2022-08-22T14:57:35.976Z,61.63
2022-08-22T14:58:56.224Z,62.09
2022-08-22T14:59:59.009Z,62.47
2022-08-22T15:01:11.258Z,62.61
2022-08-22T15:02:31.958Z,62.67
2022-08-22T15:03:38.061Z,62.81
2022-08-22T15:04:47.832Z,62.32
2022-08-22T15:05:52.120Z,63.09
2022-08-22T15:06:58.515Z,62.86
2022-08-22T15:08:00.556Z,63.18
2022-08-22T15:09:08.680Z,63.73
2022-08-22T15:10:25.358Z,63.58
2022-08-22T15:11:33.236Z,63.37
2022-08-22T15:12:48.740Z,64.08
2022-08-22T15:14:20.125Z,64.22
2022-08-22T15:15:27.508Z,64.47
2022-08-22T15:16:37.339Z,64.59
2022-08-22T15:17:51.095Z,64.85
2022-08-22T15:18:53.030Z,65.04
2022-08-22T15:20:10.924Z,64.69
2022-08-22T15:21:27.685Z,65.52
2022-08-22T15:22:29.578Z,66.25
2022-08-22T15:23:32.266Z,65.69
2022-08-22T15:25:01.711Z,66.13
2022-08-22T15:26:23.148Z,66.38
2022-08-22T15:27:27.687Z,65.65
2022-08-22T15:28:49.835Z,65.94
2022-08-22T15:29:58.710Z,66.24
2022-08-22T15:31:05.741Z,65.97
2022-08-22T15:32:08.000Z,66.33
2022-08-22T15:33:25.102Z,66.19
2022-08-22T15:34:42.215Z,65.25
2022-08-22T15:35:45.817Z,65.17
2022-08-22T15:37:27.933Z,64.71
2022-08-22T15:38:36.608Z,64.95
2022-08-22T15:40:08.040Z,64.89
2022-08-22T15:41:36.929Z,65.11
2022-08-22T15:42:47.347Z,64.83
2022-08-22T15:43:52.998Z,64.97
2022-08-22T15:44:55.674Z,65.82
2022-08-22T15:46:21.290Z,64.18
2022-08-22T15:47:28.442Z,63.76
2022-08-22T15:48:36.443Z,64.69
2022-08-22T15:49:51.942Z,65.06
2022-08-22T15:51:23.945Z,64.27
2022-08-22T15:52:32.247Z,64.98
2022-08-22T15:54:01.750Z,64.83
2022-08-22T15:55:24.356Z,63.30
2022-08-22T15:56:29.529Z,63.91
2022-08-22T15:57:41.235Z,63.59
2022-08-22T15:58:49.487Z,63.50
2022-08-22T15:59:58.842Z,63.94
2022-08-22T16:01:19.063Z,64.45
2022-08-22T16:02:28.129Z,64.19
2022-08-22T16:03:33.281Z,63.83
2022-08-22T16:04:47.460Z,64.05
2022-08-22T16:05:55.599Z,64.57
2022-08-22T16:07:01.352Z,64.18
2022-08-22T16:08:25.991Z,64.32
2022-08-22T16:09:43.537Z,64.20
2022-08-22T16:11:09.711Z,63.55
2022-08-22T16:12:34.800Z,63.43
2022-08-22T16:13:40.270Z,63.19
2022-08-22T16:14:41.912Z,63.28
2022-08-22T16:15:54.123Z,63.87
2022-08-22T16:17:04.499Z,63.73
2022-08-22T16:18:06.939Z,63.93
2022-08-22T16:19:16.675Z,63.28
2022-08-22T16:20:38.290Z,63.93
2022-08-22T16:21:39.939Z,64.45
2022-08-22T16:22:56.769Z,64.04
2022-08-22T16:23:58.473Z,64.36
2022-08-22T16:25:02.933Z,63.67